Time;durP1;ratioP1;P1;durP2;ratioP2;P2;SDS_P1;SDS_P2;PMS_P1;PMS_P2;Temp;Humidity;BMP_temperature;BMP_pressure;BME280_temperature;BME280_humidity;BME280_pressure;Samples;Min_cycle;Max_cycle;Signal;HPM_P1;HPM_P2
2022/09/09 00:02:11;;;;;;;10.20;7.80;;;17.20;99.90;;;;;;2586001;54;20053;31
2022/09/09 00:04:45;;;;;;;9.45;7.47;;;17.10;99.90;;;;;;2683842;39;22324;31
2022/09/09 00:07:21;;;;;;;9.75;8.50;;;17.10;99.90;;;;;;2586109;54;20923;31
2022/09/09 00:09:57;;;;;;;;;;;17.20;99.90;;;;;;2604422;46;21082;31
2022/09/09 00:12:39;;;;;;;12.20;10.13;;;17.00;99.90;;;;;;2586097;54;19934;31
2022/09/09 00:15:20;;;;;;;11.00;8.05;;;17.00;99.90;;;;;;2586138;54;20907;31
2022/09/09 00:17:55;;;;;;;10.80;8.15;;;16.90;99.90;;;;;;2585802;54;20138;31
2022/09/09 00:20:33;;;;;;;8.80;7.95;;;17.00;99.90;;;;;;2585902;54;20036;31
2022/09/09 00:23:09;;;;;;;11.35;7.55;;;16.90;99.90;;;;;;2585972;54;20929;31
2022/09/09 00:25:45;;;;;;;10.57;9.47;;;16.90;99.90;;;;;;2684333;39;22289;31
2022/09/09 00:28:30;;;;;;;8.20;7.07;;;16.80;99.90;;;;;;2585691;54;20234;31
2022/09/09 00:31:11;;;;;;;6.45;5.85;;;16.80;99.90;;;;;;2684220;39;22370;31
2022/09/09 00:33:45;;;;;;;8.95;6.95;;;16.70;99.90;;;;;;2585705;54;20090;31
2022/09/09 00:36:22;;;;;;;7.17;6.47;;;16.70;99.90;;;;;;2585860;54;20119;31
2022/09/09 00:38:54;;;;;;;6.40;5.55;;;16.70;99.90;;;;;;2585587;54;20116;31
2022/09/09 00:41:34;;;;;;;10.73;6.17;;;16.60;99.90;;;;;;2586314;54;20030;31
2022/09/09 00:44:19;;;;;;;9.73;5.63;;;16.60;99.90;;;;;;2585865;54;20027;31
2022/09/09 00:46:57;;;;;;;8.60;6.15;;;16.60;99.90;;;;;;2586207;54;22374;31
2022/09/09 00:49:38;;;;;;;5.72;4.78;;;16.50;99.90;;;;;;2585830;54;20062;31
2022/09/09 00:52:26;;;;;;;5.90;5.30;;;16.50;99.90;;;;;;2604056;46;20026;31
2022/09/09 00:55:03;;;;;;;5.40;4.90;;;16.50;99.90;;;;;;2587063;46;20926;31
2022/09/09 00:57:38;;;;;;;5.77;4.80;;;16.40;99.90;;;;;;2604615;46;20085;31
2022/09/09 01:00:38;;;;;;;6.60;4.60;;;16.40;99.90;;;;;;2585889;54;20243;31
2022/09/09 01:03:28;;;;;;;6.30;5.70;;;16.40;99.90;;;;;;2585967;54;21058;31
2022/09/09 01:06:15;;;;;;;7.90;4.67;;;16.30;99.90;;;;;;2585478;54;20033;31
2022/09/09 01:09:17;;;;;;;4.85;4.20;;;16.40;99.90;;;;;;2585851;54;20932;31
2022/09/09 01:11:55;;;;;;;5.22;4.60;;;16.30;99.90;;;;;;2585567;54;20037;31
2022/09/09 01:14:37;;;;;;;7.10;4.65;;;16.20;99.90;;;;;;2585620;54;20030;31
2022/09/09 01:17:18;;;;;;;6.50;4.38;;;16.20;99.90;;;;;;2586127;54;20031;31
2022/09/09 01:20:05;;;;;;;5.90;5.30;;;16.20;99.90;;;;;;2604655;46;20921;31
2022/09/09 01:25:25;;;;;;;5.40;4.90;;;16.10;99.90;;;;;;2585549;54;20911;31
2022/09/09 01:28:11;;;;;;;7.78;6.00;;;16.10;99.90;;;;;;2585729;54;20403;31
2022/09/09 01:30:45;;;;;;;7.18;5.05;;;16.10;99.90;;;;;;2585247;54;20097;31
2022/09/09 01:33:23;;;;;;;9.88;6.10;;;16.10;99.90;;;;;;2585570;54;20086;31
2022/09/09 01:36:00;;;;;;;6.80;5.00;;;16.00;99.90;;;;;;2585808;54;20030;31
2022/09/09 01:38:39;;;;;;;5.90;4.70;;;15.90;99.90;;;;;;2585804;54;20033;31
2022/09/09 01:41:15;;;;;;;4.90;4.40;;;15.90;99.90;;;;;;2585673;54;20079;31
2022/09/09 01:43:58;;;;;;;8.60;5.20;;;15.90;99.90;;;;;;2585829;54;20026;31
2022/09/09 01:46:34;;;;;;;5.80;4.40;;;15.90;99.90;;;;;;2585967;54;20817;31
2022/09/09 01:49:10;;;;;;;7.30;5.55;;;15.80;99.90;;;;;;2585747;54;20946;31
2022/09/09 01:51:43;;;;;;;7.75;6.20;;;15.80;99.90;;;;;;2585888;54;20034;31
2022/09/09 01:54:18;;;;;;;5.40;4.87;;;15.80;99.90;;;;;;2585874;54;20038;31
2022/09/09 01:56:59;;;;;;;6.53;4.25;;;15.80;99.90;;;;;;2585612;54;20871;31
2022/09/09 01:59:44;;;;;;;7.85;5.38;;;15.70;99.90;;;;;;2603903;46;20955;31
2022/09/09 02:02:20;;;;;;;4.60;4.03;;;15.70;99.90;;;;;;2585986;54;22362;31
2022/09/09 02:05:14;;;;;;;5.35;4.85;;;15.70;99.90;;;;;;2585470;54;20775;31
2022/09/09 02:07:50;;;;;;;6.18;5.57;;;15.60;99.90;;;;;;2585718;54;20033;31
2022/09/09 02:10:43;;;;;;;6.95;6.00;;;15.60;99.90;;;;;;2585625;54;20937;31
2022/09/09 02:13:23;;;;;;;6.80;6.03;;;15.50;99.90;;;;;;2585570;54;20984;31
2022/09/09 02:16:03;;;;;;;6.47;5.30;;;15.40;99.90;;;;;;2604269;46;20065;31
2022/09/09 02:18:35;;;;;;;5.60;5.10;;;15.30;99.90;;;;;;2585617;54;20970;31
2022/09/09 02:21:11;;;;;;;6.53;4.57;;;15.30;99.90;;;;;;2585608;54;20140;31
2022/09/09 02:23:43;;;;;;;5.20;4.33;;;15.30;99.90;;;;;;2585398;54;21058;31
2022/09/09 02:26:21;;;;;;;4.45;3.35;;;15.30;99.90;;;;;;2683798;39;20996;31
2022/09/09 02:28:59;;;;;;;4.85;3.60;;;15.20;99.90;;;;;;2604237;46;20918;31
2022/09/09 02:31:35;;;;;;;4.35;3.95;;;15.20;99.90;;;;;;2604377;46;22379;31
2022/09/09 02:34:12;;;;;;;6.78;4.82;;;15.20;99.90;;;;;;2585364;54;20830;31
2022/09/09 02:36:49;;;;;;;4.25;3.85;;;15.20;99.90;;;;;;2585565;54;20026;31
2022/09/09 02:39:22;;;;;;;7.15;5.20;;;15.20;99.90;;;;;;2585632;54;20920;31
2022/09/09 02:41:58;;;;;;;3.40;3.10;;;15.20;99.90;;;;;;2603729;46;21045;31
2022/09/09 02:44:37;;;;;;;3.77;3.37;;;15.10;99.90;;;;;;2604205;46;21026;31
2022/09/09 02:47:22;;;;;;;6.60;5.90;;;15.10;99.90;;;;;;2585618;54;21014;31
2022/09/09 02:50:02;;;;;;;5.22;4.72;;;15.10;99.90;;;;;;2585119;54;20983;31
2022/09/09 02:52:41;;;;;;;4.88;4.38;;;15.10;99.90;;;;;;2604451;46;20903;31
2022/09/09 02:55:17;;;;;;;5.30;4.85;;;15.00;99.90;;;;;;2585850;54;22378;31
2022/09/09 02:57:53;;;;;;;5.03;4.53;;;15.00;99.90;;;;;;2585565;54;20027;31
2022/09/09 03:00:27;;;;;;;7.80;5.10;;;15.00;99.90;;;;;;2683433;39;21321;31
2022/09/09 03:03:13;;;;;;;7.75;6.85;;;14.90;99.90;;;;;;2585510;54;20033;31
2022/09/09 03:05:47;;;;;;;8.00;7.00;;;15.00;99.90;;;;;;2683713;39;22483;31
2022/09/09 03:08:22;;;;;;;6.60;6.00;;;14.90;99.90;;;;;;2603405;46;21394;31
2022/09/09 03:10:58;;;;;;;4.95;3.70;;;14.80;99.90;;;;;;2603423;46;20103;31
2022/09/09 03:13:33;;;;;;;4.57;4.17;;;14.80;99.90;;;;;;2603436;46;21035;31
2022/09/09 03:16:06;;;;;;;4.50;4.10;;;14.80;99.90;;;;;;2701790;39;22424;31
2022/09/09 03:18:48;;;;;;;8.10;6.18;;;14.80;99.90;;;;;;2603563;46;20255;31
2022/09/09 03:21:22;;;;;;;;;;;14.80;99.90;;;;;;2585783;54;20961;31
2022/09/09 03:23:57;;;;;;;4.40;4.00;;;14.70;99.90;;;;;;2585394;54;20818;31
2022/09/09 03:26:31;;;;;;;4.33;3.87;;;14.70;99.90;;;;;;2585450;54;20233;31
2022/09/09 03:29:06;;;;;;;3.33;3.03;;;14.70;99.90;;;;;;2585392;54;21190;31
2022/09/09 03:31:39;;;;;;;3.47;3.17;;;14.60;99.90;;;;;;2604022;46;20332;31
2022/09/09 03:34:15;;;;;;;4.93;3.80;;;14.60;99.90;;;;;;2585202;54;20772;31
2022/09/09 03:36:51;;;;;;;6.15;4.50;;;;;;;;;;2585276;54;20901;31
2022/09/09 03:39:26;;;;;;;5.33;4.83;;;14.70;99.90;;;;;;2597801;47;20837;31
2022/09/09 03:42:03;;;;;;;6.10;4.10;;;14.60;99.90;;;;;;2683502;39;22368;31
2022/09/09 03:44:38;;;;;;;4.57;3.72;;;14.60;99.90;;;;;;2585224;54;20033;31
2022/09/09 03:47:13;;;;;;;5.43;4.72;;;14.50;99.90;;;;;;2585355;54;20901;31
2022/09/09 03:49:48;;;;;;;5.90;4.53;;;14.50;99.90;;;;;;2589489;47;20857;31
2022/09/09 03:52:24;;;;;;;6.30;5.37;;;14.50;99.90;;;;;;2585285;54;20980;31
2022/09/09 03:55:00;;;;;;;5.97;4.15;;;14.40;99.90;;;;;;2585431;54;20873;31
2022/09/09 03:57:35;;;;;;;4.95;2.97;;;14.40;99.90;;;;;;2603561;47;20075;31
2022/09/09 04:00:14;;;;;;;4.93;3.90;;;14.40;99.90;;;;;;2603269;47;21041;31
2022/09/09 04:02:57;;;;;;;6.18;4.18;;;14.40;99.90;;;;;;2585063;54;20882;31
2022/09/09 04:05:34;;;;;;;7.40;6.50;;;14.40;99.90;;;;;;2585144;54;20912;31
2022/09/09 04:08:09;;;;;;;8.50;5.30;;;14.40;99.90;;;;;;2603804;47;19957;31
2022/09/09 04:10:41;;;;;;;7.50;6.70;;;14.40;99.90;;;;;;2683361;39;22728;31
2022/09/09 04:13:20;;;;;;;7.80;7.00;;;14.30;99.90;;;;;;2585200;54;20995;31
2022/09/09 04:15:55;;;;;;;4.63;4.20;;;14.30;99.90;;;;;;2585335;54;20845;31
2022/09/09 04:18:28;;;;;;;5.20;3.90;;;14.30;99.90;;;;;;2603410;47;20098;31
2022/09/09 04:21:03;;;;;;;5.45;3.92;;;14.30;99.90;;;;;;2585506;54;22400;31
2022/09/09 04:23:38;;;;;;;7.47;6.23;;;14.30;99.90;;;;;;2585230;54;20086;31
2022/09/09 04:26:12;;;;;;;6.57;5.40;;;14.30;99.90;;;;;;2585058;54;20904;31
2022/09/09 04:28:46;;;;;;;7.35;4.90;;;14.30;99.90;;;;;;2585371;54;22247;31
2022/09/09 04:31:23;;;;;;;4.90;4.10;;;14.30;99.90;;;;;;2585406;54;22394;31
2022/09/09 04:34:04;;;;;;;6.05;5.38;;;14.20;99.90;;;;;;2585027;54;25121;31
2022/09/09 04:36:43;;;;;;;4.95;4.45;;;14.20;99.90;;;;;;2585430;54;20052;31
2022/09/09 04:39:15;;;;;;;6.97;5.63;;;14.20;99.90;;;;;;2585994;54;20033;31
2022/09/09 04:41:50;;;;;;;4.78;4.38;;;14.20;99.90;;;;;;2604351;46;21011;31
2022/09/09 04:44:25;;;;;;;9.48;5.82;;;14.20;99.90;;;;;;2586102;54;20030;31
2022/09/09 04:47:01;;;;;;;8.05;5.47;;;14.20;99.90;;;;;;2585739;54;20968;31
2022/09/09 04:49:36;;;;;;;6.78;5.50;;;14.20;99.90;;;;;;2585829;54;20794;31
2022/09/09 04:52:11;;;;;;;6.30;5.70;;;14.20;99.90;;;;;;2604294;46;20943;31
2022/09/09 04:54:45;;;;;;;7.57;5.10;;;14.20;99.90;;;;;;2595088;46;20903;31
2022/09/09 04:57:20;;;;;;;7.65;6.75;;;14.20;99.90;;;;;;2585905;54;19935;31
2022/09/09 04:59:57;;;;;;;7.75;6.70;;;14.30;99.90;;;;;;2585977;54;19934;31
2022/09/09 05:02:33;;;;;;;8.68;7.53;;;14.30;99.90;;;;;;2585993;54;21245;31
2022/09/09 05:05:06;;;;;;;;;;;14.30;99.90;;;;;;2586109;54;20076;31
2022/09/09 05:07:44;;;;;;;10.02;8.63;;;14.40;99.90;;;;;;2586041;54;20761;31
2022/09/09 05:10:17;;;;;;;7.93;6.93;;;14.40;99.90;;;;;;2586110;54;22434;31
2022/09/09 05:12:56;;;;;;;13.10;9.97;;;14.40;99.90;;;;;;2604558;46;20105;31
2022/09/09 05:15:33;;;;;;;10.18;9.23;;;14.50;99.90;;;;;;2585687;54;20049;31
2022/09/09 05:18:08;;;;;;;10.55;9.48;;;14.50;99.90;;;;;;2585595;54;20045;31
2022/09/09 05:20:43;;;;;;;11.48;10.32;;;14.50;99.90;;;;;;2585984;54;20925;31
2022/09/09 05:23:21;;;;;;;14.73;9.95;;;14.60;99.90;;;;;;2585808;54;20023;31
2022/09/09 05:26:04;;;;;;;10.10;8.02;;;14.60;99.90;;;;;;2585874;54;20029;31
2022/09/09 05:28:37;;;;;;;14.70;12.32;;;14.60;99.90;;;;;;2586013;54;20901;31
2022/09/09 05:31:12;;;;;;;12.13;10.80;;;14.60;99.90;;;;;;2584817;54;20812;31
2022/09/09 05:33:46;;;;;;;12.32;8.57;;;14.70;99.90;;;;;;2585721;54;20022;31
2022/09/09 05:36:20;;;;;;;9.68;8.80;;;14.80;99.90;;;;;;2603783;46;20026;31
2022/09/09 05:39:01;;;;;;;7.68;7.03;;;15.00;99.90;;;;;;2585836;54;20023;31
2022/09/09 05:41:38;;;;;;;9.93;8.90;;;15.00;99.90;;;;;;2604504;46;20030;31
2022/09/09 05:47:01;;;;;;;9.30;7.50;;;15.40;99.90;;;;;;2585538;54;21015;31
2022/09/09 05:49:35;;;;;;;7.85;7.15;;;15.80;99.90;;;;;;2584764;54;20023;31
2022/09/09 05:52:11;;;;;;;7.57;6.30;;;16.20;99.90;;;;;;2585750;54;20062;31
2022/09/09 05:54:49;;;;;;;6.00;5.40;;;16.70;99.90;;;;;;2584766;54;20902;31
2022/09/09 05:57:22;;;;;;;6.05;5.53;;;17.20;99.90;;;;;;2683878;39;22292;31
2022/09/09 05:59:56;;;;;;;6.50;5.30;;;17.70;99.90;;;;;;2604071;46;20884;31
2022/09/09 06:02:29;;;;;;;6.30;5.50;;;18.10;99.90;;;;;;2683562;39;21223;31
2022/09/09 06:05:02;;;;;;;8.80;6.00;;;18.50;99.90;;;;;;2585852;54;20955;31
2022/09/09 06:07:41;;;;;;;6.40;5.72;;;18.90;99.90;;;;;;2585525;54;20822;31
2022/09/09 06:10:20;;;;;;;6.78;5.35;;;19.30;99.90;;;;;;2585401;54;20802;31
2022/09/09 06:12:55;;;;;;;7.68;6.63;;;19.70;99.90;;;;;;2604324;46;20026;31
2022/09/09 06:15:34;;;;;;;8.38;6.25;;;19.90;99.90;;;;;;2585592;54;20026;31
2022/09/09 06:18:10;;;;;;;4.63;4.23;;;20.20;99.90;;;;;;2585629;54;20026;31
2022/09/09 06:20:44;;;;;;;6.20;5.70;;;20.40;99.90;;;;;;2585397;54;21158;31
2022/09/09 06:23:22;;;;;;;21.38;8.30;;;20.70;99.90;;;;;;2604371;46;20026;31
2022/09/09 06:26:07;;;;;;;18.17;6.35;;;20.80;99.90;;;;;;2585349;54;20904;31
2022/09/09 06:28:42;;;;;;;16.40;6.63;;;21.10;99.90;;;;;;2585628;54;20926;31
2022/09/09 06:31:17;;;;;;;14.32;5.90;;;21.40;99.90;;;;;;2585542;54;20804;31
2022/09/09 06:33:52;;;;;;;15.35;6.72;;;21.50;99.90;;;;;;2584612;54;20932;31
2022/09/09 06:36:26;;;;;;;14.60;5.80;;;21.70;99.90;;;;;;2585683;54;22383;31
2022/09/09 06:39:00;;;;;;;19.08;6.18;;;21.90;99.90;;;;;;2584678;54;20918;31
2022/09/09 06:41:38;;;;;;;7.10;5.65;;;22.10;99.90;;;;;;2604240;46;20876;31
2022/09/09 06:44:26;;;;;;;6.85;5.80;;;22.40;99.90;;;;;;2585680;54;20960;31
2022/09/09 06:47:02;;;;;;;7.60;5.65;;;22.50;99.90;;;;;;2585325;54;20094;31
2022/09/09 06:49:40;;;;;;;7.72;5.80;;;22.60;99.90;;;;;;2585264;54;20104;31
2022/09/09 06:52:21;;;;;;;7.50;5.83;;;22.80;99.90;;;;;;2585380;54;20026;31
2022/09/09 06:54:58;;;;;;;7.10;5.85;;;23.00;99.90;;;;;;2585596;54;20026;31
2022/09/09 06:57:35;;;;;;;6.60;4.60;;;23.20;99.90;;;;;;2585475;54;20032;31
2022/09/09 07:00:19;;;;;;;5.80;3.70;;;23.30;99.90;;;;;;2585731;54;22426;31
2022/09/09 07:02:54;;;;;;;7.10;3.80;;;23.50;99.90;;;;;;2604111;46;20040;31
2022/09/09 07:05:29;;;;;;;6.25;3.88;;;23.70;99.90;;;;;;2683424;39;22207;31
2022/09/09 07:08:05;;;;;;;3.72;3.10;;;23.90;99.90;;;;;;2585281;54;20050;31
2022/09/09 07:10:43;;;;;;;3.50;2.70;;;23.80;99.90;;;;;;2585595;54;20049;31
2022/09/09 07:13:21;;;;;;;6.00;3.25;;;24.10;99.90;;;;;;2585373;54;20043;31
2022/09/09 07:15:56;;;;;;;3.45;2.40;;;24.30;99.90;;;;;;2585463;54;20027;31
2022/09/09 07:18:30;;;;;;;8.93;3.03;;;24.60;99.90;;;;;;2585104;54;20052;31
2022/09/09 07:21:04;;;;;;;4.70;2.67;;;24.60;99.90;;;;;;2585162;54;20048;31
2022/09/09 07:23:38;;;;;;;3.00;2.40;;;24.60;99.90;;;;;;2585304;54;20037;31
2022/09/09 07:26:13;;;;;;;3.72;2.92;;;24.20;99.90;;;;;;2585124;54;20032;31
2022/09/09 07:28:50;;;;;;;3.33;2.10;;;27.10;99.90;;;;;;2585021;54;20108;31
2022/09/09 07:31:25;;;;;;;6.82;2.67;;;26.60;99.90;;;;;;2585131;54;21009;31
2022/09/09 07:34:00;;;;;;;5.40;2.40;;;24.10;99.90;;;;;;2585357;54;20882;31
2022/09/09 07:36:34;;;;;;;7.30;2.80;;;24.40;99.90;;;;;;2585502;54;22341;31
2022/09/09 07:39:08;;;;;;;7.47;1.97;;;24.20;99.90;;;;;;2585389;54;21351;31
2022/09/09 07:41:43;;;;;;;2.55;1.50;;;24.70;99.90;;;;;;2754002;31;21171;31
2022/09/09 07:44:24;;;;;;;2.85;2.08;;;27.10;99.90;;;;;;2584996;54;20027;31
2022/09/09 07:47:07;;;;;;;4.07;1.60;;;24.90;99.90;;;;;;2683145;39;22252;31
2022/09/09 07:49:46;;;;;;;2.95;1.60;;;25.00;99.90;;;;;;2584794;54;21271;31
2022/09/09 07:52:24;;;;;;;5.95;1.67;;;24.90;99.90;;;;;;2585049;54;20076;31
2022/09/09 07:55:02;;;;;;;3.00;1.90;;;25.10;99.90;;;;;;2603631;47;20011;31
2022/09/09 07:57:38;;;;;;;4.05;1.70;;;25.30;99.90;;;;;;2585177;54;20088;31
2022/09/09 08:00:18;;;;;;;2.40;1.73;;;25.30;99.90;;;;;;2585022;54;20741;31
2022/09/09 08:03:00;;;;;;;4.80;1.40;;;25.40;99.90;;;;;;2585002;54;20065;31
2022/09/09 08:05:34;;;;;;;3.50;1.40;;;25.20;99.90;;;;;;2584971;54;20253;31
2022/09/09 08:08:09;;;;;;;5.67;1.87;;;25.00;99.90;;;;;;2584034;54;20237;31
2022/09/09 08:10:43;;;;;;;3.17;1.60;;;24.90;99.90;;;;;;2585282;54;21209;31
2022/09/09 08:13:18;;;;;;;6.07;1.60;;;24.90;99.90;;;;;;2585883;54;20952;31
2022/09/09 08:15:56;;;;;;;2.10;1.00;;;25.10;99.90;;;;;;2585991;54;20027;31
2022/09/09 08:18:31;;;;;;;2.80;1.05;;;25.30;99.90;;;;;;2585455;54;20954;31
2022/09/09 08:21:11;;;;;;;1.67;1.20;;;25.60;99.90;;;;;;2585853;54;20969;31
2022/09/09 08:23:48;;;;;;;3.95;1.05;;;25.80;99.90;;;;;;2586078;54;21177;31
2022/09/09 08:26:24;;;;;;;6.15;1.45;;;26.00;99.90;;;;;;2585987;54;20030;31
2022/09/09 08:28:58;;;;;;;4.78;1.30;;;26.00;99.90;;;;;;2585675;54;20840;31
2022/09/09 08:31:37;;;;;;;3.90;1.50;;;26.00;99.90;;;;;;2585708;54;20033;31
2022/09/09 08:34:13;;;;;;;3.38;1.40;;;25.90;99.90;;;;;;2603987;46;20816;31
2022/09/09 08:36:48;;;;;;;6.38;1.25;;;26.00;99.90;;;;;;2584743;54;20030;31
2022/09/09 08:39:22;;;;;;;;;;;26.00;99.90;;;;;;2585833;54;20873;31
2022/09/09 08:42:22;;;;;;;2.70;0.90;;;26.10;99.90;;;;;;2585954;54;19934;31
2022/09/09 08:45:09;;;;;;;2.17;1.03;;;26.20;99.90;;;;;;2585647;54;20042;31
2022/09/09 08:47:46;;;;;;;;;;;26.50;99.90;;;;;;2585712;54;20347;31
2022/09/09 08:50:24;;;;;;;5.65;1.00;;;26.30;99.90;;;;;;2585349;54;20819;31
2022/09/09 08:53:05;;;;;;;3.53;0.90;;;26.20;99.90;;;;;;2683815;39;21074;31
2022/09/09 08:55:42;;;;;;;1.40;0.93;;;26.20;99.90;;;;;;2585445;54;20026;31
2022/09/09 08:58:18;;;;;;;2.00;0.65;;;26.20;99.90;;;;;;2585311;54;20780;31
2022/09/09 09:01:16;;;;;;;3.20;0.90;;;26.20;99.90;;;;;;2585496;54;20231;31
2022/09/09 09:04:00;;;;;;;2.15;0.60;;;26.10;99.90;;;;;;2585492;54;20168;31
2022/09/09 09:06:48;;;;;;;2.20;0.80;;;26.10;99.90;;;;;;2585718;54;19941;31
2022/09/09 09:09:26;;;;;;;1.93;0.60;;;26.00;99.90;;;;;;2585470;54;20030;31
2022/09/09 09:12:02;;;;;;;2.55;0.65;;;26.30;99.90;;;;;;2585520;54;20033;31
2022/09/09 09:14:41;;;;;;;4.50;0.80;;;26.50;99.90;;;;;;2585746;54;19957;31
2022/09/09 09:17:18;;;;;;;4.43;0.90;;;26.60;99.90;;;;;;2585532;54;20867;31
2022/09/09 09:19:55;;;;;;;2.80;0.80;;;26.90;99.90;;;;;;2585626;54;20027;31
2022/09/09 09:22:32;;;;;;;2.10;0.67;;;27.00;99.90;;;;;;2585434;54;20258;31
2022/09/09 09:25:16;;;;;;;3.47;0.70;;;27.10;99.90;;;;;;2584418;54;20039;31
2022/09/09 09:27:55;;;;;;;2.73;0.53;;;27.20;99.90;;;;;;2584378;54;20112;31
2022/09/09 09:30:31;;;;;;;2.65;0.70;;;27.30;99.90;;;;;;2585392;54;21140;31
2022/09/09 09:33:14;;;;;;;2.90;1.20;;;27.40;99.90;;;;;;2585399;54;20928;31
2022/09/09 09:35:53;;;;;;;1.75;0.80;;;27.60;99.90;;;;;;2585314;54;20989;31
2022/09/09 09:38:28;;;;;;;1.50;0.70;;;27.60;99.90;;;;;;2683566;39;21102;31
2022/09/09 09:41:32;;;;;;;3.83;1.05;;;27.70;99.90;;;;;;2585349;54;20113;31
2022/09/09 09:44:07;;;;;;;1.30;0.77;;;27.70;99.90;;;;;;2585209;54;21423;31
2022/09/09 09:46:46;;;;;;;1.67;0.60;;;27.80;99.90;;;;;;2585310;54;20882;31
2022/09/09 09:49:20;;;;;;;2.70;0.90;;;27.90;99.90;;;;;;2585358;54;21478;31
2022/09/09 09:52:02;;;;;;;5.43;1.53;;;27.90;99.90;;;;;;2585429;54;20026;31
2022/09/09 09:54:41;;;;;;;2.57;0.70;;;28.10;99.90;;;;;;2585407;54;20030;31
2022/09/09 09:57:15;;;;;;;4.53;0.90;;;28.00;99.90;;;;;;2585021;54;20250;31
2022/09/09 10:00:02;;;;;;;1.40;0.60;;;28.00;99.90;;;;;;2584271;54;20037;31
2022/09/09 10:02:51;;;;;;;3.10;0.60;;;28.00;99.90;;;;;;2585128;54;20834;31
2022/09/09 10:05:28;;;;;;;1.60;0.65;;;28.10;99.90;;;;;;2585501;54;21984;31
2022/09/09 10:08:17;;;;;;;1.83;0.70;;;27.90;99.90;;;;;;2585261;54;20045;31
2022/09/09 10:11:09;;;;;;;2.20;0.60;;;27.80;99.90;;;;;;2683170;39;21483;31
2022/09/09 10:13:47;;;;;;;1.95;0.70;;;27.70;99.90;;;;;;2684498;39;20552;31
2022/09/09 10:16:29;;;;;;;1.73;0.75;;;27.50;99.90;;;;;;2682781;39;20493;31
2022/09/09 10:19:04;;;;;;;3.20;1.00;;;27.40;99.90;;;;;;2603516;46;20893;31
2022/09/09 10:21:51;;;;;;;;;;;27.30;99.90;;;;;;2682217;39;20552;31
2022/09/09 10:24:59;;;;;;;1.55;0.60;;;27.00;99.90;;;;;;2584961;54;19939;31
2022/09/09 10:27:39;;;;;;;3.30;0.60;;;26.90;99.90;;;;;;2585267;54;20045;31
2022/09/09 10:30:17;;;;;;;3.72;0.75;;;26.80;99.90;;;;;;2585033;54;20908;31
2022/09/09 10:35:36;;;;;;;1.95;0.80;;;27.20;99.90;;;;;;2584624;54;20886;31
2022/09/09 10:38:16;;;;;;;3.47;0.60;;;27.50;99.90;;;;;;2585352;54;20938;31
2022/09/09 10:40:51;;;;;;;3.03;0.70;;;27.70;99.90;;;;;;2585149;54;20030;31
2022/09/09 10:43:36;;;;;;;7.00;1.20;;;27.80;99.90;;;;;;2585108;54;20765;31
2022/09/09 10:46:13;;;;;;;2.33;0.50;;;27.90;99.90;;;;;;2585133;54;20026;31
2022/09/09 10:48:57;;;;;;;4.45;0.85;;;28.10;99.90;;;;;;2585189;54;20794;31
2022/09/09 10:51:36;;;;;;;2.25;0.70;;;28.10;99.90;;;;;;2603723;46;20053;31
2022/09/09 10:54:22;;;;;;;3.38;1.05;;;27.90;99.90;;;;;;2585090;54;20996;31
2022/09/09 10:56:57;;;;;;;2.13;0.70;;;27.90;99.90;;;;;;2585025;54;20870;31
2022/09/09 10:59:34;;;;;;;2.90;0.80;;;27.70;99.90;;;;;;2585270;54;20073;31
2022/09/09 11:02:15;;;;;;;1.15;0.40;;;27.70;99.90;;;;;;2585333;54;20969;31
2022/09/09 11:04:51;;;;;;;3.30;0.70;;;27.70;99.90;;;;;;2585228;54;20772;31
2022/09/09 11:07:30;;;;;;;2.90;0.75;;;27.70;99.90;;;;;;2584872;54;20037;31
2022/09/09 11:10:06;;;;;;;2.80;0.80;;;27.60;99.90;;;;;;2584993;54;20140;31
2022/09/09 11:12:39;;;;;;;1.25;0.80;;;27.70;99.90;;;;;;2603270;46;21290;31
2022/09/09 11:15:20;;;;;;;1.27;0.70;;;27.70;99.90;;;;;;2585307;54;20893;31
2022/09/09 11:17:56;;;;;;;2.67;0.60;;;27.60;99.90;;;;;;2603448;46;21210;31
2022/09/09 11:20:32;;;;;;;2.85;1.00;;;27.50;99.90;;;;;;2585108;54;20027;31
2022/09/09 11:23:05;;;;;;;;;;;27.50;99.90;;;;;;2603692;46;20058;31
2022/09/09 11:25:43;;;;;;;2.80;0.80;;;27.60;99.90;;;;;;2584838;54;20850;31
2022/09/09 11:28:44;;;;;;;2.95;0.70;;;27.70;99.90;;;;;;2585061;54;20031;31
2022/09/09 11:31:42;;;;;;;2.55;0.77;;;27.50;99.90;;;;;;2602844;46;20940;31
2022/09/09 11:34:22;;;;;;;3.58;0.90;;;27.60;99.90;;;;;;2584551;54;20954;31
2022/09/09 11:37:32;;;;;;;3.50;0.95;;;27.60;99.90;;;;;;2772587;31;21130;31
2022/09/09 11:40:23;;;;;;;3.47;0.80;;;27.60;99.90;;;;;;2753227;31;21465;31
2022/09/09 11:43:05;;;;;;;3.03;1.15;;;27.30;99.90;;;;;;2603130;47;20026;31
2022/09/09 11:45:38;;;;;;;29.85;11.45;;;27.00;99.90;;;;;;2585420;54;20941;31
2022/09/09 11:48:34;;;;;;;8.80;2.70;;;27.00;99.90;;;;;;2604138;46;20033;31
2022/09/09 11:51:09;;;;;;;;;;;26.90;99.90;;;;;;2585763;54;21144;31
2022/09/09 11:53:54;;;;;;;3.55;0.80;;;26.90;99.90;;;;;;2585954;54;19935;31
2022/09/09 11:56:32;;;;;;;2.70;1.45;;;26.70;99.90;;;;;;2585766;54;20992;31
2022/09/09 11:59:07;;;;;;;3.55;0.90;;;26.70;99.90;;;;;;2585653;54;20066;31
2022/09/09 12:01:43;;;;;;;1.95;0.50;;;26.50;99.90;;;;;;2585885;54;20841;31
2022/09/09 12:04:28;;;;;;;;;;;26.30;99.90;;;;;;2586241;54;20927;31
2022/09/09 12:07:04;;;;;;;1.60;0.50;;;26.20;99.90;;;;;;2586004;54;20781;31
2022/09/09 12:09:44;;;;;;;;;;;26.10;99.90;;;;;;2603962;46;20966;31
2022/09/09 12:12:33;;;;;;;3.00;0.60;;;26.00;99.90;;;;;;2584897;54;20005;31
2022/09/09 12:15:27;;;;;;;1.50;0.70;;;25.90;99.90;;;;;;2585534;54;20882;31
2022/09/09 12:18:02;;;;;;;2.20;1.00;;;25.90;99.90;;;;;;2585814;54;20868;31
2022/09/09 12:20:40;;;;;;;3.00;0.90;;;25.80;99.90;;;;;;2585424;54;20068;31
2022/09/09 12:23:35;;;;;;;3.37;0.70;;;25.80;99.90;;;;;;2585518;54;20046;31
2022/09/09 12:26:36;;;;;;;2.63;0.93;;;25.70;99.90;;;;;;2585498;54;21006;31
2022/09/09 12:29:15;;;;;;;1.58;0.70;;;25.70;99.90;;;;;;2585494;54;20101;31
2022/09/09 12:31:49;;;;;;;2.40;0.70;;;25.70;99.90;;;;;;2604086;46;21179;31
2022/09/09 12:34:33;;;;;;;3.88;0.88;;;25.60;99.90;;;;;;2585741;54;20033;31
2022/09/09 12:37:21;;;;;;;2.60;0.80;;;25.50;99.90;;;;;;2585695;54;20783;31
2022/09/09 12:39:58;;;;;;;3.30;0.77;;;25.50;99.90;;;;;;2604210;46;20027;31
2022/09/09 12:42:30;;;;;;;1.45;0.65;;;25.50;99.90;;;;;;2604071;46;21344;31
2022/09/09 12:45:06;;;;;;;4.50;1.87;;;25.50;99.90;;;;;;2585741;54;20107;31
2022/09/09 12:47:45;;;;;;;5.93;3.15;;;25.60;99.90;;;;;;2584956;54;21097;31
2022/09/09 12:50:19;;;;;;;2.17;1.23;;;25.60;99.90;;;;;;2604350;46;21898;31
2022/09/09 12:52:58;;;;;;;4.10;0.95;;;25.60;99.90;;;;;;2604272;46;21844;31
2022/09/09 12:55:33;;;;;;;2.08;0.82;;;25.60;99.90;;;;;;2585839;54;20046;31
2022/09/09 12:58:09;;;;;;;3.78;0.65;;;25.70;99.90;;;;;;2603662;46;20034;31
2022/09/09 13:00:52;;;;;;;1.50;0.60;;;25.70;99.90;;;;;;2585486;54;20895;31
2022/09/09 13:03:25;;;;;;;2.20;0.90;;;25.80;99.90;;;;;;2585323;54;20026;31
2022/09/09 13:06:02;;;;;;;1.90;1.27;;;25.70;99.90;;;;;;2604088;46;20949;31
2022/09/09 13:08:38;;;;;;;3.97;0.85;;;25.80;99.90;;;;;;2604011;46;20905;31
2022/09/09 13:11:16;;;;;;;1.80;0.50;;;25.70;99.90;;;;;;2585698;54;20030;31
2022/09/09 13:13:54;;;;;;;1.55;0.60;;;25.60;99.90;;;;;;2683325;39;21438;31
2022/09/09 13:16:31;;;;;;;2.72;0.98;;;25.70;99.90;;;;;;2585502;54;20026;31
2022/09/09 13:19:12;;;;;;;2.58;0.70;;;25.60;99.90;;;;;;2585520;54;20026;31
2022/09/09 13:21:47;;;;;;;3.47;0.90;;;25.50;99.90;;;;;;2585823;54;20927;31
2022/09/09 13:24:34;;;;;;;2.70;0.60;;;25.50;99.90;;;;;;2604046;46;20030;31
2022/09/09 13:27:26;;;;;;;2.78;0.75;;;25.50;99.90;;;;;;2683274;39;20640;31
2022/09/09 13:30:01;;;;;;;2.47;0.80;;;25.50;99.90;;;;;;2585665;54;20049;31
2022/09/09 13:32:36;;;;;;;1.50;0.60;;;25.50;99.90;;;;;;2603887;46;20922;31
2022/09/09 13:35:25;;;;;;;5.30;0.80;;;25.50;99.90;;;;;;2603821;46;20922;31
2022/09/09 13:38:00;;;;;;;1.83;0.60;;;25.50;99.90;;;;;;2585707;54;22425;31
2022/09/09 13:40:37;;;;;;;1.50;0.85;;;25.50;99.90;;;;;;2585273;54;20053;31
2022/09/09 13:43:15;;;;;;;5.75;0.82;;;25.60;99.90;;;;;;2585456;54;20030;31
2022/09/09 13:45:48;;;;;;;3.50;1.23;;;25.60;99.90;;;;;;2585736;54;20903;31
2022/09/09 13:48:27;;;;;;;1.55;0.60;;;25.60;99.90;;;;;;2585666;54;20802;31
2022/09/09 13:51:01;;;;;;;1.50;0.97;;;25.60;99.90;;;;;;2585467;54;20034;31
2022/09/09 13:53:36;;;;;;;1.77;0.70;;;25.50;99.90;;;;;;2585526;54;20049;31
2022/09/09 13:56:14;;;;;;;3.10;0.70;;;25.40;99.90;;;;;;2585741;54;20038;31
2022/09/09 13:58:49;;;;;;;1.80;0.70;;;25.40;99.90;;;;;;2585488;54;20030;31
2022/09/09 14:01:24;;;;;;;3.05;0.65;;;25.40;99.90;;;;;;2585349;54;20027;31
2022/09/09 14:04:01;;;;;;;2.40;0.65;;;25.30;99.90;;;;;;2683165;39;20423;31
2022/09/09 14:06:38;;;;;;;3.63;1.05;;;25.30;99.90;;;;;;2585518;54;20999;31
2022/09/09 14:09:13;;;;;;;4.45;0.90;;;25.20;99.90;;;;;;2585386;54;20104;31